Time;durP1;ratioP1;P1;durP2;ratioP2;P2;SDS_P1;SDS_P2;PMS_P1;PMS_P2;Temp;Humidity;BMP_temperature;BMP_pressure;BME280_temperature;BME280_humidity;BME280_pressure;Samples;Min_cycle;Max_cycle;Signal;HPM_P1;HPM_P2
2023/02/07 00:00:44;;;;;;;;;;;;;;;25.80;38.92;95320.44;5021179;28;7015;-65
2023/02/07 00:03:14;;;;;;;;;;;;;;;25.83;38.74;95327.75;5005822;28;8229;-65
2023/02/07 00:05:42;;;;;;;;;;;;;;;25.83;38.50;95316.72;5006664;28;7547;-65
2023/02/07 00:08:11;;;;;;;;;;;;;;;25.83;39.11;95313.22;5011150;28;9055;-65
2023/02/07 00:10:36;;;;;;;;;;;;;;;25.84;38.32;95309.94;5004311;28;7138;-65
2023/02/07 00:13:03;;;;;;;;;;;;;;;25.83;38.47;95305.69;5005794;28;9555;-65
2023/02/07 00:15:30;;;;;;;;;;;;;;;25.82;39.28;95306.94;5008352;28;7218;-65
2023/02/07 00:18:05;;;;;;;;;;;;;;;25.83;38.80;95302.94;5006212;28;7629;-65
2023/02/07 00:20:31;;;;;;;;;;;;;;;25.83;38.96;95302.19;5007064;28;7233;-65
2023/02/07 00:23:00;;;;;;;;;;;;;;;25.83;38.57;95300.19;5013311;28;8777;-65
2023/02/07 00:25:26;;;;;;;;;;;;;;;25.81;39.32;95290.91;5010726;28;9019;-65
2023/02/07 00:28:07;;;;;;;;;;;;;;;25.82;39.00;95275.84;5021340;28;7599;-64
2023/02/07 00:30:35;;;;;;;;;;;;;;;25.82;39.04;95271.09;5010780;28;7029;-64
2023/02/07 00:33:01;;;;;;;;;;;;;;;25.79;38.44;95277.63;5009107;28;9126;-64
2023/02/07 00:35:29;;;;;;;;;;;;;;;25.81;38.86;95269.63;5005533;28;7003;-65
2023/02/07 00:37:57;;;;;;;;;;;;;;;25.80;39.29;95268.09;4997364;28;7443;-64
2023/02/07 00:40:24;;;;;;;;;;;;;;;25.82;39.38;95267.59;5009278;28;7240;-65
2023/02/07 00:42:52;;;;;;;;;;;;;;;25.81;39.34;95264.09;5004850;28;8989;-65
2023/02/07 00:45:21;;;;;;;;;;;;;;;25.80;38.57;95262.56;5002717;28;9049;-64
2023/02/07 00:47:47;;;;;;;;;;;;;;;25.80;39.46;95262.56;5002760;28;9618;-64
2023/02/07 00:50:16;;;;;;;;;;;;;;;25.79;38.77;95258.31;5011043;28;9062;-65
2023/02/07 00:52:43;;;;;;;;;;;;;;;25.81;39.31;95266.09;5014629;28;7272;-65
2023/02/07 00:55:16;;;;;;;;;;;;;;;25.80;38.52;95262.56;5011589;28;7210;-65
2023/02/07 00:58:13;;;;;;;;;;;;;;;25.80;38.84;95257.06;5016647;28;9105;-64
2023/02/07 01:01:01;;;;;;;;;;;;;;;25.80;38.81;95267.31;4971764;28;8721;-65
2023/02/07 01:03:27;;;;;;;;;;;;;;;25.80;38.69;95272.84;4975687;28;7513;-65
2023/02/07 01:06:05;;;;;;;;;;;;;;;25.79;38.93;95260.31;4988879;28;7865;-65
2023/02/07 01:08:40;;;;;;;;;;;;;;;25.79;38.58;95261.09;4971674;28;7028;-65
2023/02/07 01:11:12;;;;;;;;;;;;;;;25.80;39.24;95281.88;4962989;28;8767;-65
2023/02/07 01:13:50;;;;;;;;;;;;;;;25.80;38.39;95283.84;4971344;28;8865;-65
2023/02/07 01:16:30;;;;;;;;;;;;;;;25.79;38.25;95274.88;4978295;28;7570;-65
2023/02/07 01:19:05;;;;;;;;;;;;;;;25.80;38.44;95283.84;4974106;28;7409;-65
2023/02/07 01:21:42;;;;;;;;;;;;;;;25.78;39.13;95276.09;4992440;28;8682;-65
2023/02/07 01:24:21;;;;;;;;;;;;;;;25.78;39.13;95273.34;4988998;28;9463;-65
2023/02/07 01:26:47;;;;;;;;;;;;;;;25.79;38.83;95272.09;4986592;28;8978;-65
2023/02/07 01:29:15;;;;;;;;;;;;;;;25.77;38.55;95268.31;4989207;28;7291;-65
2023/02/07 01:31:50;;;;;;;;;;;;;;;25.80;39.27;95259.06;4971589;28;7256;-65
2023/02/07 01:34:18;;;;;;;;;;;;;;;25.80;39.28;95264.56;4984246;28;7295;-65
2023/02/07 01:36:51;;;;;;;;;;;;;;;25.79;39.20;95252.81;4984447;28;7060;-65
2023/02/07 01:39:17;;;;;;;;;;;;;;;25.75;38.78;95249.50;5017641;28;7053;-64
2023/02/07 01:41:43;;;;;;;;;;;;;;;25.77;38.96;95252.56;5021352;28;7178;-64
2023/02/07 01:44:21;;;;;;;;;;;;;;;25.78;38.56;95253.28;5004314;28;9240;-65
2023/02/07 01:46:50;;;;;;;;;;;;;;;25.79;38.66;95254.81;5005125;28;7273;-65
2023/02/07 01:49:32;;;;;;;;;;;;;;;25.77;38.59;95249.78;5024278;28;7045;-65
2023/02/07 01:52:18;;;;;;;;;;;;;;;25.78;38.89;95248.53;5021660;28;8697;-64
2023/02/07 01:54:52;;;;;;;;;;;;;;;25.78;38.99;95253.28;5019697;28;8974;-65
2023/02/07 01:57:24;;;;;;;;;;;;;;;25.77;39.16;95269.09;5017793;28;7287;-64
2023/02/07 01:59:54;;;;;;;;;;;;;;;25.78;38.86;95267.06;5024421;28;6999;-65
2023/02/07 02:02:28;;;;;;;;;;;;;;;25.77;38.35;95263.56;5002302;28;9258;-65
2023/02/07 02:05:02;;;;;;;;;;;;;;;25.78;38.74;95264.31;5020440;28;7139;-65
2023/02/07 02:07:31;;;;;;;;;;;;;;;25.78;39.20;95272.56;5005561;28;7132;-65
2023/02/07 02:10:14;;;;;;;;;;;;;;;25.78;39.21;95267.81;5005997;28;7037;-65
2023/02/07 02:13:15;;;;;;;;;;;;;;;25.78;39.27;95270.59;5002161;28;7471;-65
2023/02/07 02:16:25;;;;;;;;;;;;;;;25.79;38.34;95276.84;5009816;28;9390;-65
2023/02/07 02:19:20;;;;;;;;;;;;;;;25.75;39.15;95282.56;5006610;28;7176;-65
2023/02/07 02:22:04;;;;;;;;;;;;;;;25.73;39.24;95278.81;5011033;28;9523;-65
2023/02/07 02:25:28;;;;;;;;;;;;;;;25.72;39.01;95280.81;5011747;28;7184;-65
2023/02/07 02:28:31;;;;;;;;;;;;;;;25.70;39.44;95286.06;4941600;28;7170;-65
2023/02/07 02:31:09;;;;;;;;;;;;;;;25.70;39.33;95294.34;4945207;28;7273;-65
2023/02/07 02:34:11;;;;;;;;;;;;;;;25.70;39.37;95293.56;4945298;28;8735;-65
2023/02/07 02:36:56;;;;;;;;;;;;;;;25.70;38.77;95299.84;4936535;28;9003;-65
2023/02/07 02:39:50;;;;;;;;;;;;;;;25.71;39.26;95292.34;4936361;28;7319;-65
2023/02/07 02:43:07;;;;;;;;;;;;;;;25.74;38.77;95286.59;4947874;28;7115;-65
2023/02/07 02:45:58;;;;;;;;;;;;;;;25.74;39.08;95285.81;4923170;29;9045;-65
2023/02/07 02:48:27;;;;;;;;;;;;;;;25.74;38.60;95286.59;4917965;29;7046;-64
2023/02/07 02:50:55;;;;;;;;;;;;;;;25.75;38.70;95301.88;4933308;28;7585;-64
2023/02/07 02:53:22;;;;;;;;;;;;;;;25.73;39.26;95298.84;4927452;28;7014;-64
2023/02/07 02:56:16;;;;;;;;;;;;;;;25.74;38.94;95316.91;4942151;28;8057;-64
2023/02/07 02:59:21;;;;;;;;;;;;;;;25.74;39.07;95336.19;4947494;28;8284;-65
2023/02/07 03:02:35;;;;;;;;;;;;;;;25.74;38.63;95333.44;4955315;28;7040;-65
2023/02/07 03:05:45;;;;;;;;;;;;;;;25.75;38.51;95332.19;4965394;28;7072;-65
2023/02/07 03:08:40;;;;;;;;;;;;;;;25.74;39.16;95329.91;4981209;28;7350;-65
2023/02/07 03:11:29;;;;;;;;;;;;;;;25.72;38.78;95329.66;4987853;28;9092;-64
2023/02/07 03:14:36;;;;;;;;;;;;;;;25.72;39.01;95344.19;4976527;28;8981;-65
2023/02/07 03:17:47;;;;;;;;;;;;;;;25.71;38.62;95345.44;4899153;29;6863;-65
2023/02/07 03:20:22;;;;;;;;;;;;;;;25.72;39.20;95354.44;4887869;29;7501;-65
2023/02/07 03:22:55;;;;;;;;;;;;;;;25.72;38.25;95349.69;4902664;29;9441;-66
2023/02/07 03:25:25;;;;;;;;;;;;;;;25.70;38.54;95357.72;4897565;29;9245;-66
2023/02/07 03:27:54;;;;;;;;;;;;;;;25.70;38.34;95365.97;4888716;29;9107;-66
2023/02/07 03:30:27;;;;;;;;;;;;;;;25.70;38.88;95363.22;4911049;29;7243;-66
2023/02/07 03:33:09;;;;;;;;;;;;;;;25.71;38.88;95359.19;4905922;29;8350;-66
2023/02/07 03:35:48;;;;;;;;;;;;;;;25.70;38.38;95357.72;4907240;29;7128;-66
2023/02/07 03:38:15;;;;;;;;;;;;;;;25.72;38.69;95365.47;4911047;29;7883;-66
2023/02/07 03:40:55;;;;;;;;;;;;;;;25.72;38.30;95370.97;4906982;29;7035;-66
2023/02/07 03:43:32;;;;;;;;;;;;;;;25.72;38.32;95370.97;4913014;29;8938;-66
2023/02/07 03:46:01;;;;;;;;;;;;;;;25.71;38.17;95381.25;4908425;29;7186;-66
2023/02/07 03:48:27;;;;;;;;;;;;;;;25.67;38.88;95380.72;4910800;29;9131;-66
2023/02/07 03:50:53;;;;;;;;;;;;;;;25.72;38.41;95398.53;4908764;29;9489;-65
2023/02/07 03:53:20;;;;;;;;;;;;;;;25.72;38.57;95396.53;4958537;28;7032;-66
2023/02/07 03:55:46;;;;;;;;;;;;;;;25.70;38.69;95401.78;4995934;28;8788;-66
2023/02/07 03:58:16;;;;;;;;;;;;;;;25.73;38.80;95402.81;5033482;28;9167;-65
2023/02/07 04:00:42;;;;;;;;;;;;;;;25.71;39.01;95419.81;5056515;28;9584;-66
2023/02/07 04:03:10;;;;;;;;;;;;;;;25.72;38.78;95415.84;5050875;28;8608;-66
2023/02/07 04:05:49;;;;;;;;;;;;;;;25.71;38.76;95422.56;5041449;28;7089;-66
2023/02/07 04:08:35;;;;;;;;;;;;;;;25.71;38.57;95436.34;5036581;28;7026;-65
2023/02/07 04:11:03;;;;;;;;;;;;;;;25.69;38.97;95438.84;5023060;28;7340;-66
2023/02/07 04:13:35;;;;;;;;;;;;;;;25.71;39.19;95447.38;5029166;28;9048;-66
2023/02/07 04:16:15;;;;;;;;;;;;;;;25.72;39.18;95459.16;5052847;28;7264;-66
2023/02/07 04:18:58;;;;;;;;;;;;;;;25.72;38.62;95473.69;5034145;28;8762;-66
2023/02/07 04:21:45;;;;;;;;;;;;;;;25.72;38.54;95476.47;5037117;28;7346;-66
2023/02/07 04:24:11;;;;;;;;;;;;;;;25.70;38.87;95469.91;5033487;28;9429;-65
2023/02/07 04:27:14;;;;;;;;;;;;;;;25.71;39.27;95479.72;5042628;28;7177;-66
2023/02/07 04:29:41;;;;;;;;;;;;;;;25.70;38.94;95472.66;4988606;28;7214;-66
2023/02/07 04:32:08;;;;;;;;;;;;;;;25.70;38.43;95458.91;4967240;28;6874;-65
2023/02/07 04:34:45;;;;;;;;;;;;;;;25.69;38.89;95466.41;4989393;28;7315;-66
2023/02/07 04:37:13;;;;;;;;;;;;;;;25.69;39.19;95460.88;4987030;28;7246;-66
2023/02/07 04:39:39;;;;;;;;;;;;;;;25.70;38.58;95467.16;4984577;28;9061;-66
2023/02/07 04:42:08;;;;;;;;;;;;;;;25.71;38.33;95474.19;4990613;28;7195;-65
2023/02/07 04:44:35;;;;;;;;;;;;;;;25.70;38.80;95469.91;4970507;28;9050;-66
2023/02/07 04:47:03;;;;;;;;;;;;;;;25.67;38.98;95460.63;4969042;28;9188;-66
2023/02/07 04:49:50;;;;;;;;;;;;;;;25.71;39.10;95463.19;4988443;28;9037;-66
2023/02/07 04:52:19;;;;;;;;;;;;;;;25.70;39.02;95461.66;4973307;28;7178;-66
2023/02/07 04:54:46;;;;;;;;;;;;;;;25.67;38.52;95465.38;4975576;28;7185;-66
2023/02/07 04:57:39;;;;;;;;;;;;;;;25.71;38.06;95479.72;4991231;28;7498;-66
2023/02/07 05:00:08;;;;;;;;;;;;;;;25.70;38.26;95480.94;4986932;28;7011;-65
2023/02/07 05:02:46;;;;;;;;;;;;;;;25.69;38.35;95485.69;4977815;28;7232;-65
2023/02/07 05:05:26;;;;;;;;;;;;;;;25.69;38.80;95480.16;5023152;28;7138;-66
2023/02/07 05:07:52;;;;;;;;;;;;;;;25.71;38.86;95480.44;5040634;28;7332;-66
2023/02/07 05:10:18;;;;;;;;;;;;;;;25.67;38.12;95468.88;5028161;28;7233;-66
2023/02/07 05:12:48;;;;;;;;;;;;;;;25.70;38.26;95478.94;5034875;28;7263;-66
2023/02/07 05:15:17;;;;;;;;;;;;;;;25.69;38.31;95488.44;5045012;28;7142;-66
2023/02/07 05:18:16;;;;;;;;;;;;;;;25.71;38.17;95476.94;5052389;28;7034;-66
2023/02/07 05:20:43;;;;;;;;;;;;;;;25.69;38.80;95477.41;4989653;28;9486;-65
2023/02/07 05:23:18;;;;;;;;;;;;;;;25.70;39.18;95480.94;4990144;28;7027;-66
2023/02/07 05:25:54;;;;;;;;;;;;;;;25.70;39.24;95478.94;4999823;28;7239;-66
2023/02/07 05:28:25;;;;;;;;;;;;;;;25.69;38.28;95485.69;4973450;28;7124;-65
2023/02/07 05:31:20;;;;;;;;;;;;;;;25.70;39.19;95498.22;4996377;28;7317;-65
2023/02/07 05:33:56;;;;;;;;;;;;;;;25.70;38.23;95509.25;4928123;28;8727;-65
2023/02/07 05:36:22;;;;;;;;;;;;;;;25.70;38.08;95520.28;4915427;28;7145;-65
2023/02/07 05:38:53;;;;;;;;;;;;;;;25.70;38.49;95523.03;4942413;28;9004;-65
2023/02/07 05:41:19;;;;;;;;;;;;;;;25.70;38.81;95525.78;4919580;29;8178;-65
2023/02/07 05:43:45;;;;;;;;;;;;;;;25.72;38.46;95517.03;4936032;28;9058;-65
2023/02/07 05:46:19;;;;;;;;;;;;;;;25.70;38.70;95511.25;4930145;28;7044;-65
2023/02/07 05:48:46;;;;;;;;;;;;;;;25.72;41.11;95520.56;4931071;28;7604;-66
2023/02/07 05:51:13;;;;;;;;;;;;;;;25.74;39.07;95518.06;4931212;28;9515;-65
2023/02/07 05:53:43;;;;;;;;;;;;;;;25.73;39.34;95511.03;4925223;28;7744;-65
2023/02/07 05:56:12;;;;;;;;;;;;;;;25.74;39.23;95506.28;4941517;28;9006;-65
2023/02/07 05:58:39;;;;;;;;;;;;;;;25.74;38.48;95500.75;4989203;28;7294;-65
2023/02/07 06:01:07;;;;;;;;;;;;;;;25.73;38.73;95507.53;4989823;28;7267;-63
2023/02/07 06:03:33;;;;;;;;;;;;;;;25.71;38.64;95499.72;4972792;28;7276;-63
2023/02/07 06:05:59;;;;;;;;;;;;;;;25.68;38.65;95497.19;4974469;28;7952;-63
2023/02/07 06:08:25;;;;;;;;;;;;;;;25.69;38.47;95498.69;4991875;28;7123;-63
2023/02/07 06:10:52;;;;;;;;;;;;;;;25.69;38.68;95504.97;5012924;28;8733;-63
2023/02/07 06:13:18;;;;;;;;;;;;;;;25.71;39.19;95508.00;5041212;28;9031;-63
2023/02/07 06:15:44;;;;;;;;;;;;;;;25.70;39.04;95511.25;5045009;28;7380;-63
2023/02/07 06:18:10;;;;;;;;;;;;;;;25.70;38.54;95508.50;5033049;28;9318;-63
2023/02/07 06:21:04;;;;;;;;;;;;;;;25.68;38.46;95510.97;5042499;28;7812;-63
2023/02/07 06:23:39;;;;;;;;;;;;;;;25.68;38.74;95509.00;5006710;28;9421;-63
2023/02/07 06:26:05;;;;;;;;;;;;;;;25.68;39.00;95500.72;4987657;28;9823;-62
2023/02/07 06:28:41;;;;;;;;;;;;;;;25.69;38.76;95499.47;4988259;28;8703;-63
2023/02/07 06:31:09;;;;;;;;;;;;;;;25.70;38.66;95503.75;4997972;28;7227;-63
2023/02/07 06:33:35;;;;;;;;;;;;;;;25.71;38.69;95496.97;4988891;28;9186;-62
2023/02/07 06:36:01;;;;;;;;;;;;;;;25.71;38.46;95499.00;4989106;28;7010;-63
2023/02/07 06:38:43;;;;;;;;;;;;;;;25.71;37.92;95513.50;4986862;28;6984;-63
2023/02/07 06:41:10;;;;;;;;;;;;;;;25.69;38.66;95507.72;4987436;28;9464;-64
2023/02/07 06:43:47;;;;;;;;;;;;;;;25.69;39.20;95509.72;4992686;28;7036;-64
2023/02/07 06:46:23;;;;;;;;;;;;;;;25.68;38.75;95514.50;5001183;28;9131;-64
2023/02/07 06:48:49;;;;;;;;;;;;;;;25.67;39.33;95521.22;4989682;28;7065;-64
2023/02/07 06:51:16;;;;;;;;;;;;;;;25.67;38.83;95524.00;4987932;28;9495;-64
2023/02/07 06:53:47;;;;;;;;;;;;;;;25.67;39.32;95510.22;4990996;28;7693;-64
2023/02/07 06:56:13;;;;;;;;;;;;;;;25.67;38.88;95515.72;5006480;28;8200;-64
2023/02/07 06:58:39;;;;;;;;;;;;;;;25.67;39.33;95526.75;5005199;28;7061;-64
2023/02/07 07:01:06;;;;;;;;;;;;;;;25.65;39.16;95534.75;5033335;28;7416;-63
2023/02/07 07:03:35;;;;;;;;;;;;;;;25.69;38.70;95540.03;5052963;28;7238;-64
2023/02/07 07:06:04;;;;;;;;;;;;;;;25.64;38.55;95541.50;5037682;28;7117;-64
2023/02/07 07:08:30;;;;;;;;;;;;;;;25.65;38.77;95565.03;5020613;28;9072;-64
2023/02/07 07:11:00;;;;;;;;;;;;;;;25.63;38.62;95556.50;5024532;28;6993;-64
2023/02/07 07:13:27;;;;;;;;;;;;;;;25.63;39.02;95564.78;5038685;28;8743;-64
2023/02/07 07:16:09;;;;;;;;;;;;;;;25.63;39.08;95567.53;5040336;28;7274;-64
2023/02/07 07:18:47;;;;;;;;;;;;;;;25.63;39.39;95558.50;5059419;28;9138;-64
2023/02/07 07:21:23;;;;;;;;;;;;;;;25.63;38.63;95562.03;5031913;28;7026;-64
2023/02/07 07:23:50;;;;;;;;;;;;;;;25.62;38.81;95566.00;5055306;28;9122;-64
2023/02/07 07:26:29;;;;;;;;;;;;;;;25.63;38.94;95578.56;5033310;28;8621;-64
2023/02/07 07:28:59;;;;;;;;;;;;;;;25.62;38.98;95582.53;5046058;28;8965;-64
2023/02/07 07:31:38;;;;;;;;;;;;;;;25.62;39.40;95582.53;5022333;28;9149;-65
2023/02/07 07:34:13;;;;;;;;;;;;;;;25.61;38.82;95586.53;5024995;28;8830;-64
2023/02/07 07:36:39;;;;;;;;;;;;;;;25.61;39.43;95591.28;5038032;28;9001;-64
2023/02/07 07:39:07;;;;;;;;;;;;;;;25.61;39.34;95583.78;5033782;28;9075;-64
2023/02/07 07:41:35;;;;;;;;;;;;;;;25.64;39.71;95582.06;5042158;28;7277;-64
2023/02/07 07:44:23;;;;;;;;;;;;;;;25.64;38.88;95576.56;5044210;28;9698;-65
2023/02/07 07:46:49;;;;;;;;;;;;;;;25.63;38.82;95572.28;5037293;28;8674;-65
2023/02/07 07:49:16;;;;;;;;;;;;;;;25.63;38.84;95586.81;5029312;28;7072;-64
2023/02/07 07:51:45;;;;;;;;;;;;;;;25.60;39.04;95574.00;5041395;28;8336;-65
2023/02/07 07:54:12;;;;;;;;;;;;;;;25.63;39.34;95589.56;5024307;28;7476;-65
2023/02/07 07:56:50;;;;;;;;;;;;;;;25.62;39.87;95585.28;5010419;28;7632;-65
2023/02/07 07:59:17;;;;;;;;;;;;;;;25.65;39.32;95589.09;5028738;28;7208;-65
2023/02/07 08:01:43;;;;;;;;;;;;;;;25.62;39.16;95590.06;5016489;28;7262;-65
2023/02/07 08:04:16;;;;;;;;;;;;;;;25.64;38.96;95593.84;5045182;28;7041;-65
2023/02/07 08:06:42;;;;;;;;;;;;;;;25.64;39.12;95580.09;5027984;28;7151;-65
2023/02/07 08:09:08;;;;;;;;;;;;;;;25.65;39.95;95592.59;5025804;28;8974;-64
2023/02/07 08:11:34;;;;;;;;;;;;;;;25.67;40.01;95592.13;5040907;28;8757;-65
2023/02/07 08:14:00;;;;;;;;;;;;;;;25.67;39.94;95587.38;5024957;28;7305;-65
2023/02/07 08:16:26;;;;;;;;;;;;;;;25.68;38.99;95588.91;5038485;28;7175;-65
2023/02/07 08:18:52;;;;;;;;;;;;;;;25.68;38.83;95594.41;5029729;28;9198;-64
2023/02/07 08:21:19;;;;;;;;;;;;;;;25.69;39.58;95608.91;5033987;28;9115;-64
2023/02/07 08:23:48;;;;;;;;;;;;;;;25.67;39.38;95605.88;5028058;28;7258;-65
2023/02/07 08:26:14;;;;;;;;;;;;;;;25.67;39.76;95614.91;5035047;28;9214;-65
2023/02/07 08:29:13;;;;;;;;;;;;;;;25.71;39.02;95623.72;5036776;28;9283;-64
2023/02/07 08:31:48;;;;;;;;;;;;;;;25.73;39.88;95626.75;4979648;28;7500;-65
2023/02/07 08:34:17;;;;;;;;;;;;;;;25.73;40.00;95631.53;4987092;28;9159;-65
2023/02/07 08:36:54;;;;;;;;;;;;;;;25.74;39.58;95641.31;4979900;28;9234;-65
2023/02/07 08:39:23;;;;;;;;;;;;;;;25.74;39.02;95633.03;4965477;28;7241;-64
2023/02/07 08:41:49;;;;;;;;;;;;;;;25.73;39.64;95634.28;4983352;28;9218;-64
2023/02/07 08:44:15;;;;;;;;;;;;;;;25.73;39.81;95637.78;4984075;28;7593;-64
2023/02/07 08:46:44;;;;;;;;;;;;;;;25.71;38.71;95643.03;4985319;28;9387;-65
2023/02/07 08:49:10;;;;;;;;;;;;;;;25.59;36.08;95646.88;4972317;28;7502;-65
2023/02/07 08:51:36;;;;;;;;;;;;;;;25.32;28.17;95645.22;4985968;28;8800;-64
2023/02/07 08:54:14;;;;;;;;;;;;;;;25.02;27.63;95651.25;4975166;28;7034;-64
2023/02/07 08:56:49;;;;;;;;;;;;;;;24.87;27.19;95650.53;4973235;28;9335;-64
2023/02/07 08:59:20;;;;;;;;;;;;;;;24.89;27.48;95642.53;4976833;28;7525;-64
2023/02/07 09:02:08;;;;;;;;;;;;;;;24.96;26.33;95642.16;4991219;28;8717;-64
2023/02/07 09:04:43;;;;;;;;;;;;;;;25.04;26.06;95637.78;4973344;28;7219;-64
2023/02/07 09:07:15;;;;;;;;;;;;;;;25.12;26.31;95630.66;4981048;28;7213;-64
2023/02/07 09:09:43;;;;;;;;;;;;;;;25.19;26.52;95627.50;5047651;28;9433;-64
2023/02/07 09:12:18;;;;;;;;;;;;;;;25.27;25.70;95628.63;5055546;28;7271;-64
2023/02/07 09:14:45;;;;;;;;;;;;;;;25.29;26.40;95632.41;5047751;28;9159;-64
2023/02/07 09:17:15;;;;;;;;;;;;;;;25.36;26.31;95628.50;5052331;28;7058;-64
2023/02/07 09:19:41;;;;;;;;;;;;;;;25.37;25.88;95632.78;5031953;28;7237;-64
2023/02/07 09:22:09;;;;;;;;;;;;;;;25.35;26.59;95635.25;5036503;28;9515;-65
2023/02/07 09:24:35;;;;;;;;;;;;;;;25.36;27.15;95634.75;5053259;28;9513;-64
2023/02/07 09:27:04;;;;;;;;;;;;;;;25.36;27.57;95631.25;5047652;28;8726;-65
2023/02/07 09:29:34;;;;;;;;;;;;;;;25.36;27.20;95625.72;5033417;28;8985;-65
2023/02/07 09:32:05;;;;;;;;;;;;;;;25.37;27.63;95627.25;5032587;28;8923;-65
2023/02/07 09:34:34;;;;;;;;;;;;;;;25.42;28.31;95632.13;5030827;28;7530;-65
2023/02/07 09:37:01;;;;;;;;;;;;;;;25.39;28.71;95624.78;5031853;28;7042;-65
2023/02/07 09:39:35;;;;;;;;;;;;;;;25.40;28.68;95627.06;5030666;28;7424;-64
2023/02/07 09:42:22;;;;;;;;;;;;;;;25.43;28.92;95626.13;5051607;28;7205;-65
2023/02/07 09:45:23;;;;;;;;;;;;;;;25.42;29.00;95630.09;5030783;28;9008;-64
2023/02/07 09:48:07;;;;;;;;;;;;;;;25.42;29.85;95643.88;4987499;28;9035;-65
2023/02/07 09:50:46;;;;;;;;;;;;;;;25.46;29.05;95645.69;4985840;28;9472;-65
2023/02/07 09:53:23;;;;;;;;;;;;;;;25.46;29.48;95651.19;4986940;28;7282;-64
2023/02/07 09:55:57;;;;;;;;;;;;;;;25.48;30.28;95655.00;4987181;28;7237;-64
2023/02/07 09:58:26;;;;;;;;;;;;;;;25.53;30.19;95640.53;4984480;28;7245;-65
2023/02/07 10:01:03;;;;;;;;;;;;;;;25.56;30.06;95645.06;4986924;28;9630;-64
2023/02/07 10:04:19;;;;;;;;;;;;;;;25.56;30.96;95642.31;4973996;28;8866;-65
2023/02/07 10:06:58;;;;;;;;;;;;;;;25.59;30.87;95638.63;4910667;29;9520;-64
2023/02/07 10:09:42;;;;;;;;;;;;;;;25.60;30.50;95625.59;4912765;29;8879;-64
2023/02/07 10:12:26;;;;;;;;;;;;;;;25.62;31.08;95634.88;4891172;29;9026;-64
2023/02/07 10:15:21;;;;;;;;;;;;;;;25.66;31.56;95637.44;4911822;29;9056;-64
2023/02/07 10:18:05;;;;;;;;;;;;;;;25.68;31.92;95641.25;4919371;29;7501;-64
2023/02/07 10:20:38;;;;;;;;;;;;;;;25.70;31.46;95647.03;4919787;29;9452;-65
2023/02/07 10:23:33;;;;;;;;;;;;;;;25.71;31.33;95645.78;4924428;28;7265;-65
2023/02/07 10:26:23;;;;;;;;;;;;;;;25.72;31.82;95652.81;4960508;28;7147;-65
2023/02/07 10:29:18;;;;;;;;;;;;;;;25.72;31.50;95663.06;4957209;28;7127;-65
2023/02/07 10:31:52;;;;;;;;;;;;;;;25.74;31.63;95660.59;4954902;28;8977;-65
2023/02/07 10:34:34;;;;;;;;;;;;;;;25.72;31.85;95669.34;4950209;28;9107;-65
2023/02/07 10:37:30;;;;;;;;;;;;;;;25.73;32.76;95684.63;4950922;28;9344;-65
2023/02/07 10:40:06;;;;;;;;;;;;;;;25.73;32.23;95673.59;4948496;28;8071;-65
2023/02/07 10:42:57;;;;;;;;;;;;;;;25.73;32.60;95676.38;4980999;28;9425;-65
2023/02/07 10:45:23;;;;;;;;;;;;;;;25.74;32.70;95683.41;5043000;28;7053;-65
2023/02/07 10:47:49;;;;;;;;;;;;;;;25.76;33.04;95688.44;5035781;28;7041;-65
2023/02/07 10:50:19;;;;;;;;;;;;;;;25.77;33.13;95692.72;5030315;28;9237;-65
2023/02/07 10:52:58;;;;;;;;;;;;;;;25.78;32.69;95688.69;5027591;28;7279;-65
2023/02/07 10:56:12;;;;;;;;;;;;;;;25.78;32.81;95692.22;5032562;28;7275;-64
2023/02/07 10:58:49;;;;;;;;;;;;;;;25.78;32.67;95686.72;5034527;28;7013;-64
2023/02/07 11:01:27;;;;;;;;;;;;;;;25.79;33.74;95685.50;5042481;28;8844;-64
2023/02/07 11:03:54;;;;;;;;;;;;;;;25.82;32.86;95679.00;5047277;28;7073;-65
2023/02/07 11:06:31;;;;;;;;;;;;;;;25.85;33.05;95699.34;5035702;28;7111;-65
2023/02/07 11:09:25;;;;;;;;;;;;;;;25.86;33.04;95701.59;5046044;28;9006;-65
2023/02/07 11:12:26;;;;;;;;;;;;;;;25.92;33.08;95694.19;5029953;28;7039;-65
2023/02/07 11:15:26;;;;;;;;;;;;;;;25.93;32.68;95687.41;4921218;28;9269;-65
2023/02/07 11:17:56;;;;;;;;;;;;;;;25.93;33.39;95692.16;4934716;28;8713;-65
2023/02/07 11:20:32;;;;;;;;;;;;;;;25.94;33.27;95686.19;4933823;29;9782;-65
2023/02/07 11:23:09;;;;;;;;;;;;;;;25.94;33.28;95686.19;4931727;29;7308;-65
2023/02/07 11:25:47;;;;;;;;;;;;;;;25.99;33.92;95688.22;4940689;28;8950;-65
2023/02/07 11:28:43;;;;;;;;;;;;;;;26.00;33.05;95689.00;4942850;28;8817;-65
2023/02/07 11:31:29;;;;;;;;;;;;;;;25.99;34.18;95679.97;4932439;28;9168;-65
2023/02/07 11:34:51;;;;;;;;;;;;;;;26.02;33.97;95681.75;4937792;28;8379;-65
2023/02/07 11:38:13;;;;;;;;;;;;;;;26.07;33.81;95686.59;4924776;29;7876;-65
2023/02/07 11:40:42;;;;;;;;;;;;;;;26.07;34.28;95681.09;4850025;29;7885;-65
2023/02/07 11:43:17;;;;;;;;;;;;;;;26.07;34.32;95670.06;4849696;29;7115;-65
2023/02/07 11:46:08;;;;;;;;;;;;;;;26.12;34.15;95676.91;4833854;29;7258;-65
2023/02/07 11:48:48;;;;;;;;;;;;;;;26.13;33.90;95673.66;4840921;29;8666;-65
2023/02/07 11:52:04;;;;;;;;;;;;;;;26.19;34.36;95681.25;4880110;29;8980;-65
2023/02/07 11:54:32;;;;;;;;;;;;;;;26.20;33.79;95669.72;4885333;29;7057;-65
2023/02/07 11:57:21;;;;;;;;;;;;;;;26.21;33.82;95676.00;4888274;29;9508;-65
2023/02/07 12:00:16;;;;;;;;;;;;;;;26.23;34.16;95690.81;4877081;29;7093;-65
2023/02/07 12:02:50;;;;;;;;;;;;;;;26.23;33.55;95687.31;4867935;29;7840;-65
2023/02/07 12:05:20;;;;;;;;;;;;;;;26.16;33.67;95680.94;4882436;29;9249;-65
2023/02/07 12:08:02;;;;;;;;;;;;;;;26.16;33.65;95678.19;4877116;29;9036;-65
2023/02/07 12:10:47;;;;;;;;;;;;;;;26.17;33.56;95682.47;4892353;29;7689;-65
2023/02/07 12:13:40;;;;;;;;;;;;;;;26.20;33.74;95691.03;4887927;29;7098;-65
2023/02/07 12:16:22;;;;;;;;;;;;;;;26.19;33.82;95684.75;4937255;28;9280;-65
2023/02/07 12:19:02;;;;;;;;;;;;;;;26.22;34.17;95688.53;4929340;29;6856;-65
2023/02/07 12:22:03;;;;;;;;;;;;;;;26.22;33.46;95694.06;4931860;28;7444;-65
2023/02/07 12:25:10;;;;;;;;;;;;;;;26.23;34.51;95690.06;4928808;28;7281;-65
2023/02/07 12:27:44;;;;;;;;;;;;;;;26.25;33.71;95690.34;4940329;28;7960;-65
2023/02/07 12:30:41;;;;;;;;;;;;;;;26.27;33.47;95685.09;4945425;28;8306;-64
2023/02/07 12:33:47;;;;;;;;;;;;;;;26.27;33.74;95685.09;5049592;28;9576;-65
2023/02/07 12:36:25;;;;;;;;;;;;;;;26.31;33.89;95691.16;5031151;28;9455;-64
2023/02/07 12:39:13;;;;;;;;;;;;;;;26.33;34.37;95683.91;5027385;28;7770;-65
2023/02/07 12:41:52;;;;;;;;;;;;;;;26.31;34.54;95680.88;5037163;28;9433;-64
2023/02/07 12:44:36;;;;;;;;;;;;;;;26.36;34.12;95688.44;5043691;28;7057;-64
2023/02/07 12:47:25;;;;;;;;;;;;;;;26.38;33.78;95683.19;5047092;28;9415;-65
2023/02/07 12:50:14;;;;;;;;;;;;;;;26.41;34.20;95685.00;5041737;28;9037;-65
2023/02/07 12:53:27;;;;;;;;;;;;;;;26.44;34.39;95680.50;5044512;28;7263;-65
2023/02/07 12:56:11;;;;;;;;;;;;;;;26.46;34.33;95692.59;5029515;28;9097;-64
2023/02/07 12:59:02;;;;;;;;;;;;;;;26.48;33.96;95683.81;5037202;28;9101;-65
2023/02/07 13:01:54;;;;;;;;;;;;;;;26.50;34.51;95684.84;5039411;28;7485;-65
2023/02/07 13:04:56;;;;;;;;;;;;;;;26.52;34.85;95684.34;5029676;28;9366;-65
2023/02/07 13:07:47;;;;;;;;;;;;;;;26.53;34.39;95674.84;5029689;28;9042;-64
2023/02/07 13:10:20;;;;;;;;;;;;;;;26.56;34.11;95668.34;5029558;28;9356;-64
2023/02/07 13:13:32;;;;;;;;;;;;;;;26.58;34.04;95668.59;5032527;28;7114;-64
2023/02/07 13:16:38;;;;;;;;;;;;;;;26.62;34.40;95664.38;4947765;28;7289;-65
2023/02/07 13:19:48;;;;;;;;;;;;;;;26.64;34.39;95659.13;4962692;28;9273;-65
2023/02/07 13:23:11;;;;;;;;;;;;;;;26.68;33.99;95653.41;4951412;28;7617;-64
2023/02/07 13:25:44;;;;;;;;;;;;;;;26.66;34.33;95651.16;4916648;29;8200;-64
2023/02/07 13:28:37;;;;;;;;;;;;;;;26.72;34.84;95667.75;4891223;29;8674;-64
2023/02/07 13:31:16;;;;;;;;;;;;;;;26.75;34.51;95664.06;4905687;29;8902;-65
2023/02/07 13:33:43;;;;;;;;;;;;;;;26.78;34.02;95668.59;4912198;29;9234;-64
2023/02/07 13:36:18;;;;;;;;;;;;;;;26.80;34.71;95668.84;4903583;29;9786;-64
2023/02/07 13:39:35;;;;;;;;;;;;;;;26.85;33.96;95668.16;4904785;29;9067;-64
2023/02/07 13:42:20;;;;;;;;;;;;;;;26.88;34.25;95667.19;4915010;29;8598;-64
2023/02/07 13:45:03;;;;;;;;;;;;;;;26.90;34.97;95672.97;4907471;29;7506;-64
2023/02/07 13:47:42;;;;;;;;;;;;;;;26.93;34.53;95677.50;4911831;29;7332;-65
2023/02/07 13:51:04;;;;;;;;;;;;;;;26.96;34.75;95671.00;4894828;29;9339;-65
2023/02/07 13:54:17;;;;;;;;;;;;;;;27.00;34.29;95663.25;4954518;28;7125;-65